Time;durP1;ratioP1;P1;durP2;ratioP2;P2;SDS_P1;SDS_P2;PMS_P1;PMS_P2;Temp;Humidity;BMP_temperature;BMP_pressure;BME280_temperature;BME280_humidity;BME280_pressure;Samples;Min_cycle;Max_cycle;Signal;HPM_P1;HPM_P2
2022/01/18 00:01:52;;;;;;;;;;;;;;;3.95;100.00;103844.50;5108129;27;19927;-76
2022/01/18 00:04:18;;;;;;;;;;;;;;;3.98;100.00;103836.25;5109166;28;20352;-75
2022/01/18 00:06:47;;;;;;;;;;;;;;;3.99;100.00;103835.50;5107361;28;19923;-75
2022/01/18 00:09:13;;;;;;;;;;;;;;;4.02;100.00;103839.28;5092877;28;20400;-75
2022/01/18 00:11:50;;;;;;;;;;;;;;;4.06;100.00;103843.03;5105251;28;19934;-75
2022/01/18 00:14:39;;;;;;;;;;;;;;;4.08;100.00;103846.66;5107715;28;19965;-75
2022/01/18 00:17:39;;;;;;;;;;;;;;;4.11;100.00;103839.28;5104211;28;19921;-75
2022/01/18 00:20:05;;;;;;;;;;;;;;;4.16;100.00;103847.41;5096239;28;20469;-75
2022/01/18 00:22:31;;;;;;;;;;;;;;;4.17;100.00;103844.13;5108165;28;19980;-75
2022/01/18 00:24:58;;;;;;;;;;;;;;;4.16;100.00;103845.75;5105359;28;19927;-75
2022/01/18 00:27:24;;;;;;;;;;;;;;;4.17;100.00;103842.47;5094116;28;19920;-75
2022/01/18 00:30:05;;;;;;;;;;;;;;;4.18;100.00;103846.81;5107323;28;19978;-75
2022/01/18 00:32:45;;;;;;;;;;;;;;;4.18;100.00;103851.91;5108808;28;19919;-75
2022/01/18 00:35:11;;;;;;;;;;;;;;;4.21;100.00;103864.97;5108567;28;20391;-75
2022/01/18 00:37:39;;;;;;;;;;;;;;;4.21;100.00;103859.88;5092760;28;19939;-76
2022/01/18 00:40:05;;;;;;;;;;;;;;;4.23;100.00;103863.47;5088570;28;19935;-76
2022/01/18 00:42:30;;;;;;;;;;;;;;;4.27;100.00;103872.34;5106145;28;19920;-76
2022/01/18 00:44:56;;;;;;;;;;;;;;;4.27;100.00;103877.44;5094905;28;19919;-76
2022/01/18 00:47:21;;;;;;;;;;;;;;;4.29;100.00;103878.47;5097901;28;19920;-75
2022/01/18 00:49:48;;;;;;;;;;;;;;;4.29;100.00;103878.47;5075032;28;20331;-74
2022/01/18 00:52:17;;;;;;;;;;;;;;;4.29;100.00;103879.38;5107979;28;20372;-75
2022/01/18 00:54:45;;;;;;;;;;;;;;;4.32;100.00;103888.09;5106844;28;20018;-74
2022/01/18 00:57:10;;;;;;;;;;;;;;;4.33;100.00;103887.34;5098644;28;19915;-74
2022/01/18 00:59:39;;;;;;;;;;;;;;;4.33;100.00;103887.34;5095909;28;19939;-75
2022/01/18 01:02:04;;;;;;;;;;;;;;;4.35;100.00;103896.03;5077083;28;19924;-76
2022/01/18 01:04:34;;;;;;;;;;;;;;;4.35;100.00;103894.38;5092543;28;20451;-75
2022/01/18 01:07:00;;;;;;;;;;;;;;;4.34;100.00;103890.03;5104238;28;20299;-75
2022/01/18 01:09:25;;;;;;;;;;;;;;;4.35;100.00;103878.19;5094014;28;19927;-76
2022/01/18 01:11:50;;;;;;;;;;;;;;;4.35;100.00;103876.53;5104796;28;20299;-76
2022/01/18 01:14:20;;;;;;;;;;;;;;;4.37;100.00;103880.16;5107457;28;19959;-76
2022/01/18 01:16:55;;;;;;;;;;;;;;;4.39;100.00;103870.13;5093815;28;19972;-75
2022/01/18 01:33:05;;;;;;;;;;;;;;;4.45;100.00;103858.91;5106801;28;19969;-75
2022/01/18 01:45:51;;;;;;;;;;;;;;;4.48;100.00;103856.66;5103663;28;20284;-75
2022/01/18 01:48:18;;;;;;;;;;;;;;;4.48;100.00;103859.19;5095877;28;19920;-76
2022/01/18 01:51:02;;;;;;;;;;;;;;;4.49;100.00;103860.09;5090580;28;19989;-76
2022/01/18 01:53:28;;;;;;;;;;;;;;;4.50;100.00;103867.00;5107154;28;19924;-76
2022/01/18 01:55:53;;;;;;;;;;;;;;;4.49;100.00;103862.63;5105522;28;19926;-76
2022/01/18 01:58:23;;;;;;;;;;;;;;;4.50;100.00;103870.47;5095370;28;19928;-76
2022/01/18 02:00:50;;;;;;;;;;;;;;;4.49;100.00;103858.47;5090970;28;20402;-76
2022/01/18 02:12:30;;;;;;;;;;;;;;;4.50;100.00;103874.66;5100375;28;19924;-75
2022/01/18 02:15:17;;;;;;;;;;;;;;;4.49;100.00;103878.84;5072330;28;20427;-75
2022/01/18 02:23:15;;;;;;;;;;;;;;;4.49;100.00;103875.38;5076363;28;19989;-75
2022/01/18 02:25:41;;;;;;;;;;;;;;;4.49;100.00;103867.72;5067071;28;20662;-76
2022/01/18 02:28:06;;;;;;;;;;;;;;;4.50;100.00;103869.56;5072475;28;19920;-75
2022/01/18 02:30:31;;;;;;;;;;;;;;;4.51;100.00;103867.16;5070709;28;19927;-75
2022/01/18 02:32:57;;;;;;;;;;;;;;;4.50;100.00;103867.00;5057197;28;19924;-76
2022/01/18 02:35:22;;;;;;;;;;;;;;;4.51;100.00;103877.34;5051365;28;19920;-76
2022/01/18 02:37:51;;;;;;;;;;;;;;;4.51;100.00;103869.72;5071829;28;19926;-75
2022/01/18 02:40:16;;;;;;;;;;;;;;;4.52;100.00;103862.97;5059705;28;19928;-75
2022/01/18 02:42:45;;;;;;;;;;;;;;;4.53;100.00;103869.84;5068841;28;19928;-75
2022/01/18 02:45:10;;;;;;;;;;;;;;;4.53;100.00;103859.66;5053617;28;20392;-75
2022/01/18 02:47:35;;;;;;;;;;;;;;;4.52;100.00;103860.41;5106538;28;19963;-75
2022/01/18 02:50:00;;;;;;;;;;;;;;;4.53;100.00;103852.91;5107140;28;20273;-75
2022/01/18 02:52:26;;;;;;;;;;;;;;;4.56;100.00;103858.34;5073056;28;19923;-75
2022/01/18 02:54:51;;;;;;;;;;;;;;;4.56;100.00;103860.88;5102618;28;20292;-75
2022/01/18 02:57:25;;;;;;;;;;;;;;;4.57;100.00;103864.31;5074114;28;20330;-76
2022/01/18 03:00:06;;;;;;;;;;;;;;;4.57;100.00;103861.78;5106732;28;19919;-75
2022/01/18 03:05:16;;;;;;;;;;;;;;;4.56;100.00;103860.88;5103058;28;20037;-75
2022/01/18 03:07:42;;;;;;;;;;;;;;;4.56;100.00;103868.53;5087298;28;19915;-75
2022/01/18 03:10:09;;;;;;;;;;;;;;;4.56;100.00;103860.88;5107781;28;19962;-76
2022/01/18 03:12:34;;;;;;;;;;;;;;;4.56;100.00;103862.53;5101644;27;20390;-75
2022/01/18 03:14:59;;;;;;;;;;;;;;;4.55;100.00;103863.25;5087909;28;20025;-75
2022/01/18 03:17:25;;;;;;;;;;;;;;;4.55;100.00;103866.72;5092905;28;19926;-76
2022/01/18 03:19:50;;;;;;;;;;;;;;;4.56;100.00;103867.63;5072847;28;20329;-75
2022/01/18 03:22:15;;;;;;;;;;;;;;;4.57;100.00;103869.44;5105551;28;19920;-76
2022/01/18 03:30:10;;;;;;;;;;;;;;;4.58;100.00;103874.66;5090747;28;20396;-75
2022/01/18 03:32:35;;;;;;;;;;;;;;;4.59;100.00;103873.00;5099076;28;20424;-76
2022/01/18 03:35:01;;;;;;;;;;;;;;;4.57;100.00;103877.06;5089737;28;19924;-76
2022/01/18 03:37:26;;;;;;;;;;;;;;;4.59;100.00;103878.13;5089020;28;20319;-75
2022/01/18 03:39:52;;;;;;;;;;;;;;;4.58;100.00;103873.78;5087998;28;19976;-76
2022/01/18 03:44:44;;;;;;;;;;;;;;;4.60;100.00;103877.38;5104352;28;19923;-75
2022/01/18 03:47:12;;;;;;;;;;;;;;;4.60;100.00;103876.47;5105913;28;20458;-76
2022/01/18 03:49:37;;;;;;;;;;;;;;;4.60;100.00;103877.38;5103852;28;19934;-76
2022/01/18 03:52:03;;;;;;;;;;;;;;;4.60;100.00;103879.00;5088629;28;20401;-75
2022/01/18 03:54:28;;;;;;;;;;;;;;;4.58;100.00;103879.75;5071806;28;20352;-76
2022/01/18 03:56:53;;;;;;;;;;;;;;;4.60;100.00;103877.38;5109653;27;20032;-75
2022/01/18 03:59:19;;;;;;;;;;;;;;;4.60;100.00;103882.47;5105293;28;20391;-75
2022/01/18 04:01:44;;;;;;;;;;;;;;;4.58;100.00;103889.97;5104835;28;19927;-74
2022/01/18 04:04:09;;;;;;;;;;;;;;;4.58;100.00;103884.84;5090669;28;20387;-76
2022/01/18 04:06:34;;;;;;;;;;;;;;;4.59;100.00;103890.84;5106962;27;20037;-76
2022/01/18 04:09:00;;;;;;;;;;;;;;;4.58;100.00;103889.06;5092672;28;19920;-76
2022/01/18 04:11:27;;;;;;;;;;;;;;;4.58;100.00;103896.72;5085518;27;20295;-76
2022/01/18 04:13:52;;;;;;;;;;;;;;;4.56;100.00;103891.47;5103813;28;20304;-75
2022/01/18 04:16:17;;;;;;;;;;;;;;;4.57;100.00;103898.34;5103067;28;19941;-74
2022/01/18 04:18:59;;;;;;;;;;;;;;;4.58;100.00;103899.25;5103353;28;19923;-76
2022/01/18 04:26:56;;;;;;;;;;;;;;;4.55;100.00;103902.41;5106688;28;19923;-75
2022/01/18 04:29:21;;;;;;;;;;;;;;;4.56;100.00;103899.09;5069246;28;20026;-76
2022/01/18 04:31:47;;;;;;;;;;;;;;;4.56;100.00;103900.75;5101517;28;20019;-76
2022/01/18 04:34:12;;;;;;;;;;;;;;;4.56;100.00;103899.09;5088613;28;19919;-77
2022/01/18 04:36:37;;;;;;;;;;;;;;;4.54;100.00;103897.13;5103233;28;19916;-77
2022/01/18 04:39:03;;;;;;;;;;;;;;;4.51;100.00;103902.84;5088514;28;19965;-76
2022/01/18 04:41:30;;;;;;;;;;;;;;;4.51;100.00;103909.59;5093022;28;19967;-76
2022/01/18 04:49:10;;;;;;;;;;;;;;;4.47;100.00;103895.63;5108228;28;19922;-76
2022/01/18 04:51:36;;;;;;;;;;;;;;;4.47;100.00;103895.63;5098947;28;20006;-76
2022/01/18 04:54:03;;;;;;;;;;;;;;;4.46;100.00;103898.91;5103143;28;20014;-75
2022/01/18 04:57:51;;;;;;;;;;;;;;;4.44;100.00;103899.53;5103688;28;20208;-76
2022/01/18 04:59:15;;;;;;;;;;;;;;;4.44;100.00;103904.63;5099059;28;19916;-74
2022/01/18 05:01:41;;;;;;;;;;;;;;;4.43;100.00;103900.25;5088778;28;21127;-75
2022/01/18 05:04:07;;;;;;;;;;;;;;;4.43;100.00;103911.38;5108345;27;19977;-75
2022/01/18 05:06:33;;;;;;;;;;;;;;;4.44;100.00;103912.25;5091441;28;19923;-75
2022/01/18 05:09:01;;;;;;;;;;;;;;;4.44;100.00;103918.25;5093098;28;19920;-75
2022/01/18 05:11:30;;;;;;;;;;;;;;;4.45;100.00;103924.25;5103574;27;19934;-74
2022/01/18 05:24:19;;;;;;;;;;;;;;;4.43;100.00;103925.72;5091934;28;19962;-74
2022/01/18 05:26:45;;;;;;;;;;;;;;;4.41;100.00;103917.94;5105992;28;19963;-74
2022/01/18 05:29:10;;;;;;;;;;;;;;;4.39;100.00;103921.97;5108250;28;19919;-75
2022/01/18 05:31:35;;;;;;;;;;;;;;;4.38;100.00;103917.63;5090610;28;19931;-74
2022/01/18 05:34:01;;;;;;;;;;;;;;;4.37;100.00;103920.94;5091586;28;19927;-75
2022/01/18 05:36:27;;;;;;;;;;;;;;;4.39;100.00;103921.06;5103272;28;20354;-75
2022/01/18 05:38:52;;;;;;;;;;;;;;;4.38;100.00;103911.63;5092149;28;19926;-76
2022/01/18 05:41:18;;;;;;;;;;;;;;;4.36;100.00;103914.00;5094199;28;19923;-75
2022/01/18 05:43:43;;;;;;;;;;;;;;;4.35;100.00;103912.22;5071696;28;19924;-75
2022/01/18 05:46:08;;;;;;;;;;;;;;;4.35;100.00;103906.22;5087897;28;19919;-75
2022/01/18 05:48:33;;;;;;;;;;;;;;;4.34;100.00;103907.88;5107446;28;19915;-75
2022/01/18 05:51:01;;;;;;;;;;;;;;;4.35;100.00;103913.84;5108055;28;19928;-75
2022/01/18 05:53:27;;;;;;;;;;;;;;;4.35;100.00;103909.66;5099860;28;19923;-75
2022/01/18 05:55:53;;;;;;;;;;;;;;;4.34;100.00;103905.31;5118492;27;19931;-75
2022/01/18 05:58:19;;;;;;;;;;;;;;;4.35;100.00;103906.22;5090792;28;20530;-75
2022/01/18 06:00:50;;;;;;;;;;;;;;;4.33;100.00;103905.16;5092149;28;19929;-75
2022/01/18 06:03:18;;;;;;;;;;;;;;;4.33;100.00;103902.63;5089511;28;19920;-75
2022/01/18 06:08:27;;;;;;;;;;;;;;;4.36;100.00;103908.00;5104267;28;19942;-75
2022/01/18 06:10:52;;;;;;;;;;;;;;;4.35;100.00;103901.13;5093334;28;19920;-74
2022/01/18 06:13:17;;;;;;;;;;;;;;;4.32;100.00;103904.28;5090664;28;19919;-75
2022/01/18 06:15:44;;;;;;;;;;;;;;;4.33;100.00;103912.81;5103773;28;19927;-74
2022/01/18 06:18:10;;;;;;;;;;;;;;;4.29;100.00;103916.69;5109637;28;20388;-75
2022/01/18 06:20:36;;;;;;;;;;;;;;;4.28;100.00;103918.34;5088425;28;19925;-75
2022/01/18 06:23:01;;;;;;;;;;;;;;;4.29;100.00;103919.22;5074415;28;19920;-75
2022/01/18 06:25:26;;;;;;;;;;;;;;;4.26;100.00;103918.94;5108371;28;20442;-75
2022/01/18 06:27:53;;;;;;;;;;;;;;;4.26;100.00;103909.63;5107543;28;19923;-75
2022/01/18 06:30:19;;;;;;;;;;;;;;;4.25;100.00;103923.13;5105547;28;19915;-75
2022/01/18 06:32:44;;;;;;;;;;;;;;;4.25;100.00;103907.84;5104405;28;20403;-75
2022/01/18 06:35:10;;;;;;;;;;;;;;;4.25;100.00;103905.31;5107769;28;19924;-75
2022/01/18 06:37:36;;;;;;;;;;;;;;;4.24;100.00;103903.47;5104355;28;19919;-75
2022/01/18 06:40:03;;;;;;;;;;;;;;;4.26;100.00;103909.63;5108895;27;19920;-75
2022/01/18 06:42:29;;;;;;;;;;;;;;;4.25;100.00;103901.84;5107798;28;19916;-75
2022/01/18 06:44:54;;;;;;;;;;;;;;;4.26;100.00;103903.66;5071197;28;19931;-75
2022/01/18 06:47:20;;;;;;;;;;;;;;;4.27;100.00;103908.88;5110438;28;19938;-75
2022/01/18 06:49:45;;;;;;;;;;;;;;;4.25;100.00;103907.84;5107787;28;20030;-75
2022/01/18 06:52:10;;;;;;;;;;;;;;;4.23;100.00;103911.84;5098302;28;20027;-74
2022/01/18 06:54:36;;;;;;;;;;;;;;;4.23;100.00;103913.50;5099542;28;20288;-75
2022/01/18 06:57:01;;;;;;;;;;;;;;;4.21;100.00;103909.91;5106295;28;19923;-75
2022/01/18 06:59:27;;;;;;;;;;;;;;;4.20;100.00;103909.00;5109767;28;19958;-75
2022/01/18 07:01:52;;;;;;;;;;;;;;;4.22;100.00;103915.16;5107810;28;19920;-74
2022/01/18 07:04:17;;;;;;;;;;;;;;;4.18;100.00;103920.66;5107236;28;20273;-76
2022/01/18 07:06:45;;;;;;;;;;;;;;;4.18;100.00;103927.41;5109464;28;19923;-75
2022/01/18 07:09:11;;;;;;;;;;;;;;;4.16;100.00;103928.91;5109650;28;19930;-75
2022/01/18 07:11:36;;;;;;;;;;;;;;;4.14;100.00;103926.22;5108093;28;19923;-75
2022/01/18 07:14:01;;;;;;;;;;;;;;;4.13;100.00;103931.16;5095314;28;20400;-74
2022/01/18 07:16:27;;;;;;;;;;;;;;;4.12;100.00;103932.78;5112935;28;19916;-76
2022/01/18 07:18:52;;;;;;;;;;;;;;;4.11;100.00;103935.16;5105442;28;20076;-75
2022/01/18 07:21:17;;;;;;;;;;;;;;;4.11;100.00;103932.63;5096094;28;19920;-75
2022/01/18 07:23:42;;;;;;;;;;;;;;;4.12;100.00;103939.50;5110125;28;19915;-75
2022/01/18 07:26:08;;;;;;;;;;;;;;;4.13;100.00;103942.25;5096009;28;19955;-75
2022/01/18 07:28:33;;;;;;;;;;;;;;;4.17;100.00;103944.34;5102242;28;20304;-75
2022/01/18 07:30:58;;;;;;;;;;;;;;;4.17;100.00;103949.44;5103646;28;19931;-76
2022/01/18 07:33:23;;;;;;;;;;;;;;;4.18;100.00;103951.22;5106633;28;19935;-76
2022/01/18 07:35:49;;;;;;;;;;;;;;;4.19;100.00;103947.97;5104837;28;20039;-75
2022/01/18 07:38:17;;;;;;;;;;;;;;;4.19;100.00;103940.31;5107925;28;19923;-75
2022/01/18 07:40:44;;;;;;;;;;;;;;;4.21;100.00;103950.66;5104095;28;19980;-75
2022/01/18 07:43:10;;;;;;;;;;;;;;;4.22;100.00;103948.28;5091316;28;20371;-76
2022/01/18 07:45:35;;;;;;;;;;;;;;;4.24;100.00;103953.50;5090709;28;20002;-75
2022/01/18 07:48:01;;;;;;;;;;;;;;;4.26;100.00;103958.03;5102006;28;19966;-75
2022/01/18 07:50:27;;;;;;;;;;;;;;;4.22;100.00;103950.81;5106539;28;19927;-75
2022/01/18 07:52:52;;;;;;;;;;;;;;;4.22;100.00;103957.56;5091752;28;20065;-75
2022/01/18 07:55:17;;;;;;;;;;;;;;;4.23;100.00;103959.34;5107254;28;19926;-75
2022/01/18 07:57:43;;;;;;;;;;;;;;;4.24;100.00;103956.97;5107980;28;19920;-75
2022/01/18 08:00:13;;;;;;;;;;;;;;;4.22;100.00;103953.38;5105029;28;19934;-75
2022/01/18 08:02:38;;;;;;;;;;;;;;;4.23;100.00;103955.16;5109680;28;19915;-75
2022/01/18 08:05:04;;;;;;;;;;;;;;;4.25;100.00;103961.34;5108476;28;20429;-75
2022/01/18 08:07:30;;;;;;;;;;;;;;;4.24;100.00;103956.97;5108754;28;19961;-75
2022/01/18 08:09:55;;;;;;;;;;;;;;;4.27;100.00;103959.84;5109986;28;19923;-75
2022/01/18 08:12:21;;;;;;;;;;;;;;;4.33;100.00;103969.75;5081639;28;19969;-76
2022/01/18 08:14:47;;;;;;;;;;;;;;;4.32;100.00;103960.31;5076646;28;19920;-76
2022/01/18 08:17:12;;;;;;;;;;;;;;;4.35;100.00;103960.63;5109629;28;19919;-76
2022/01/18 08:19:38;;;;;;;;;;;;;;;4.37;100.00;103950.56;5106923;28;19923;-75
2022/01/18 08:22:04;;;;;;;;;;;;;;;4.41;100.00;103956.16;5103452;28;19916;-76
2022/01/18 08:24:29;;;;;;;;;;;;;;;4.40;100.00;103959.44;5089885;28;19966;-77
2022/01/18 08:26:54;;;;;;;;;;;;;;;4.41;100.00;103953.59;5102692;28;20234;-75
2022/01/18 08:29:20;;;;;;;;;;;;;;;4.42;100.00;103957.03;5106961;28;19971;-72
2022/01/18 08:31:46;;;;;;;;;;;;;;;4.44;100.00;103955.59;5091203;28;19934;-74
2022/01/18 08:34:12;;;;;;;;;;;;;;;4.47;100.00;103950.78;5107110;28;20405;-74
2022/01/18 08:36:38;;;;;;;;;;;;;;;4.52;100.00;103954.69;5102920;28;20056;-75
2022/01/18 08:39:04;;;;;;;;;;;;;;;4.58;100.00;103947.69;5106203;28;19930;-74
2022/01/18 08:41:29;;;;;;;;;;;;;;;4.65;100.00;103959.41;5092161;28;20374;-74
2022/01/18 08:43:55;;;;;;;;;;;;;;;4.67;100.00;103951.19;5100447;28;19916;-74
2022/01/18 08:46:20;;;;;;;;;;;;;;;4.74;100.00;103950.13;5105405;28;19949;-74
2022/01/18 08:48:46;;;;;;;;;;;;;;;4.78;100.00;103949.69;5088072;28;20001;-74
2022/01/18 08:51:11;;;;;;;;;;;;;;;4.84;100.00;103938.44;5100472;28;19920;-74
2022/01/18 08:53:38;;;;;;;;;;;;;;;4.91;100.00;103942.50;5105865;28;19912;-73
2022/01/18 08:56:04;;;;;;;;;;;;;;;4.96;100.00;103955.72;5092322;28;19927;-74
2022/01/18 08:58:29;;;;;;;;;;;;;;;4.96;100.00;103959.19;5103985;28;19918;-74
2022/01/18 09:00:54;;;;;;;;;;;;;;;4.94;100.00;103963.22;5089276;28;19916;-74
2022/01/18 09:03:20;;;;;;;;;;;;;;;4.95;100.00;103969.22;5091413;28;19920;-74
2022/01/18 09:05:46;;;;;;;;;;;;;;;4.99;100.00;103966.25;5091148;28;20016;-74
2022/01/18 09:08:13;;;;;;;;;;;;;;;5.04;100.00;103960.88;5107791;28;20305;-74
2022/01/18 09:10:38;;;;;;;;;;;;;;;5.10;100.00;103961.47;5106259;28;20330;-74
2022/01/18 09:13:04;;;;;;;;;;;;;;;5.19;100.00;103965.69;5089664;28;19916;-74
2022/01/18 09:15:30;;;;;;;;;;;;;;;5.26;100.00;103965.53;5095197;28;20402;-73
2022/01/18 09:17:55;;;;;;;;;;;;;;;5.36;100.00;103963.16;5097563;28;19915;-74
2022/01/18 09:20:23;;;;;;;;;;;;;;;5.48;100.00;103958.34;5104243;28;19965;-74
2022/01/18 09:22:48;;;;;;;;;;;;;;;5.59;100.00;103963.75;5106306;28;19919;-74
2022/01/18 09:25:18;;;;;;;;;;;;;;;5.64;100.00;103962.56;5091382;28;19915;-73
2022/01/18 09:27:44;;;;;;;;;;;;;;;5.72;100.00;103972.59;5108286;28;19926;-74
2022/01/18 09:30:10;;;;;;;;;;;;;;;5.72;100.00;103970.94;5091123;28;19923;-74
2022/01/18 09:32:35;;;;;;;;;;;;;;;5.76;100.00;103965.38;5107905;28;19916;-76
2022/01/18 09:35:01;;;;;;;;;;;;;;;5.81;100.00;103969.28;5090723;28;19970;-73
2022/01/18 09:37:26;;;;;;;;;;;;;;;5.82;100.00;103971.06;5103344;28;19927;-74
2022/01/18 09:39:53;;;;;;;;;;;;;;;5.83;100.00;103980.56;5099219;28;19995;-74
2022/01/18 09:42:19;;;;;;;;;;;;;;;5.87;100.00;103979.19;5099365;28;20419;-74
2022/01/18 09:44:46;;;;;;;;;;;;;;;5.93;100.00;103978.91;5102588;28;19951;-73
2022/01/18 09:47:11;;;;;;;;;;;;;;;5.93;100.00;103984.03;5103551;28;20376;-74
2022/01/18 09:49:37;;;;;;;;;;;;;;;5.95;100.00;103977.44;5074149;28;19931;-73
2022/01/18 09:52:02;;;;;;;;;;;;;;;6.01;100.00;103983.13;5106966;28;19927;-74
2022/01/18 09:54:28;;;;;;;;;;;;;;;6.05;100.00;103986.09;5108977;28;19965;-74
2022/01/18 09:56:53;;;;;;;;;;;;;;;6.13;100.00;103989.41;5107640;28;20116;-75
2022/01/18 09:59:19;;;;;;;;;;;;;;;6.24;100.00;103985.31;5119858;27;19934;-74
2022/01/18 10:01:44;;;;;;;;;;;;;;;6.34;100.00;103986.31;5091394;28;19920;-74
2022/01/18 10:04:18;;;;;;;;;;;;;;;6.47;100.00;103980.72;5089812;28;19978;-74
2022/01/18 10:06:48;;;;;;;;;;;;;;;6.60;100.00;103987.88;5093278;28;19920;-75
2022/01/18 10:09:14;;;;;;;;;;;;;;;6.71;100.00;103989.78;5117907;27;19969;-75
2022/01/18 10:11:58;;;;;;;;;;;;;;;6.90;100.00;103988.19;5109383;28;19966;-74
2022/01/18 10:14:23;;;;;;;;;;;;;;;7.15;100.00;103987.88;5105568;28;19916;-75
2022/01/18 10:16:48;;;;;;;;;;;;;;;7.35;100.00;103982.94;5103144;28;19919;-74
2022/01/18 10:19:27;;;;;;;;;;;;;;;7.60;100.00;103988.63;5089571;28;19946;-74
2022/01/18 10:21:54;;;;;;;;;;;;;;;7.85;100.00;103985.69;5107558;28;19962;-74
2022/01/18 10:24:25;;;;;;;;;;;;;;;8.00;100.00;103987.91;5089620;28;19926;-74
2022/01/18 10:26:51;;;;;;;;;;;;;;;8.19;100.00;103981.84;5108271;28;19918;-74
2022/01/18 10:29:17;;;;;;;;;;;;;;;8.30;100.00;103983.69;5107300;28;20280;-74
2022/01/18 10:34:28;;;;;;;;;;;;;;;8.54;100.00;103978.13;5097508;28;20389;-75
2022/01/18 10:36:55;;;;;;;;;;;;;;;8.62;100.00;103976.25;5088411;28;19916;-75
2022/01/18 10:39:22;;;;;;;;;;;;;;;8.68;100.00;103974.22;5110333;28;20338;-74
2022/01/18 10:41:47;;;;;;;;;;;;;;;8.83;100.00;103969.47;5107583;28;19923;-74
2022/01/18 10:44:14;;;;;;;;;;;;;;;9.02;100.00;103972.81;5106805;28;19916;-74
2022/01/18 10:46:41;;;;;;;;;;;;;;;9.66;100.00;103974.66;5102856;28;20333;-74
2022/01/18 10:49:07;;;;;;;;;;;;;;;11.64;97.31;103965.09;5105415;28;19923;-74
2022/01/18 10:51:35;;;;;;;;;;;;;;;12.74;96.45;103947.13;5105897;28;19920;-74
2022/01/18 10:54:04;;;;;;;;;;;;;;;12.94;83.54;103945.91;5121829;28;19955;-74
2022/01/18 10:56:49;;;;;;;;;;;;;;;13.71;80.10;103945.03;5092959;28;20364;-74
2022/01/18 10:59:21;;;;;;;;;;;;;;;13.60;89.75;103941.75;5075141;28;19924;-73
2022/01/18 11:02:03;;;;;;;;;;;;;;;13.67;89.52;103935.28;5076213;28;20660;-74
2022/01/18 11:04:28;;;;;;;;;;;;;;;13.79;81.37;103936.06;5105018;28;19969;-74
2022/01/18 11:06:58;;;;;;;;;;;;;;;13.30;84.34;103937.16;5082997;28;19945;-75
2022/01/18 11:09:23;;;;;;;;;;;;;;;13.10;76.31;103930.63;5102201;28;20009;-75
2022/01/18 11:11:49;;;;;;;;;;;;;;;13.08;75.37;103932.22;5100722;28;20423;-74
2022/01/18 11:14:17;;;;;;;;;;;;;;;12.84;88.88;103932.38;5104800;28;19919;-74
2022/01/18 11:16:44;;;;;;;;;;;;;;;12.87;87.64;103935.19;5105469;28;19927;-74
2022/01/18 11:19:39;;;;;;;;;;;;;;;13.04;83.39;103933.72;5091019;28;19916;-75
2022/01/18 11:22:08;;;;;;;;;;;;;;;13.11;82.62;103930.75;5099864;28;20395;-74
2022/01/18 11:24:35;;;;;;;;;;;;;;;13.05;83.44;103926.88;5097263;28;19916;-74
2022/01/18 11:27:03;;;;;;;;;;;;;;;13.43;85.16;103929.41;5102034;28;19947;-75
2022/01/18 11:29:30;;;;;;;;;;;;;;;14.65;83.87;103924.19;5107174;28;19920;-74
2022/01/18 11:31:56;;;;;;;;;;;;;;;16.27;82.81;103919.53;5093784;28;19981;-75
2022/01/18 11:34:29;;;;;;;;;;;;;;;17.92;61.40;103913.09;5090997;28;20366;-75
2022/01/18 11:36:59;;;;;;;;;;;;;;;18.57;73.44;103914.28;5102546;28;19923;-75
2022/01/18 11:39:27;;;;;;;;;;;;;;;19.19;68.12;103913.47;5107929;28;19919;-75
2022/01/18 11:42:03;;;;;;;;;;;;;;;19.15;68.28;103908.94;5098086;28;19917;-75
2022/01/18 11:44:29;;;;;;;;;;;;;;;18.37;61.33;103913.38;5100026;28;20376;-75
2022/01/18 11:46:55;;;;;;;;;;;;;;;17.24;64.94;103902.00;5097711;28;19922;-74
2022/01/18 11:49:25;;;;;;;;;;;;;;;16.09;73.13;103898.69;5110232;28;19967;-77
2022/01/18 11:51:56;;;;;;;;;;;;;;;15.13;73.39;103901.06;5106215;28;19953;-75
2022/01/18 11:54:28;;;;;;;;;;;;;;;14.46;75.96;103903.13;5089138;28;19927;-75
2022/01/18 11:56:53;;;;;;;;;;;;;;;13.99;83.85;103902.78;5097493;28;19978;-74
2022/01/18 11:59:20;;;;;;;;;;;;;;;13.37;65.53;103905.75;5108043;28;20395;-76
2022/01/18 12:01:45;;;;;;;;;;;;;;;12.87;70.40;103908.47;5108040;28;20445;-76
2022/01/18 12:04:10;;;;;;;;;;;;;;;12.46;72.82;103914.28;5105360;28;19924;-76
2022/01/18 12:06:46;;;;;;;;;;;;;;;12.27;76.36;103906.06;5078202;28;19927;-74
2022/01/18 12:09:29;;;;;;;;;;;;;;;12.07;78.16;103904.66;5093689;28;19923;-73
2022/01/18 12:11:56;;;;;;;;;;;;;;;11.69;77.99;103902.78;5105993;28;19920;-73
2022/01/18 12:14:43;;;;;;;;;;;;;;;11.39;79.77;103903.16;5105036;28;19927;-74
2022/01/18 12:17:12;;;;;;;;;;;;;;;11.19;80.93;103912.00;5107286;28;20449;-75
2022/01/18 12:19:42;;;;;;;;;;;;;;;11.01;79.72;103901.22;5095171;28;19922;-73
2022/01/18 12:22:08;;;;;;;;;;;;;;;10.91;82.05;103909.03;5106749;28;19962;-74
2022/01/18 12:24:33;;;;;;;;;;;;;;;11.00;85.50;103902.91;5115378;27;19923;-76
2022/01/18 12:27:02;;;;;;;;;;;;;;;11.14;82.15;103909.06;5113967;27;19924;-74
2022/01/18 12:34:31;;;;;;;;;;;;;;;11.14;81.54;103898.78;5107558;28;20617;-72
2022/01/18 12:37:17;;;;;;;;;;;;;;;11.05;84.48;103887.81;5091567;27;19915;-73
2022/01/18 12:40:05;;;;;;;;;;;;;;;11.02;85.40;103885.88;5105713;28;19946;-72
2022/01/18 12:45:05;;;;;;;;;;;;;;;11.05;86.16;103882.66;5103459;28;19923;-73
2022/01/18 12:47:30;;;;;;;;;;;;;;;11.08;83.45;103872.56;5091562;28;19923;-73
2022/01/18 12:49:55;;;;;;;;;;;;;;;11.04;82.65;103870.53;5096666;28;20012;-73
2022/01/18 12:52:21;;;;;;;;;;;;;;;11.07;84.76;103875.03;5107393;28;19928;-72
2022/01/18 12:54:48;;;;;;;;;;;;;;;11.06;85.53;103865.53;5108537;28;20007;-73
2022/01/18 12:57:14;;;;;;;;;;;;;;;11.16;82.19;103862.81;5094773;28;20372;-73
2022/01/18 12:59:58;;;;;;;;;;;;;;;11.36;84.48;103852.31;5106042;28;19930;-76
2022/01/18 13:02:23;;;;;;;;;;;;;;;11.60;83.41;103852.28;5105280;28;19939;-75
2022/01/18 13:04:58;;;;;;;;;;;;;;;11.46;82.96;103859.00;5078265;28;20475;-72
2022/01/18 13:07:23;;;;;;;;;;;;;;;11.35;80.44;103847.06;5105145;28;19996;-72
2022/01/18 13:10:03;;;;;;;;;;;;;;;11.26;80.87;103836.97;5092982;28;20056;-72
2022/01/18 13:12:29;;;;;;;;;;;;;;;11.14;82.14;103834.38;5096236;28;19928;-73
2022/01/18 13:14:55;;;;;;;;;;;;;;;11.05;79.86;103836.31;5090636;28;20277;-73
2022/01/18 13:23:01;;;;;;;;;;;;;;;11.04;78.80;103839.63;5106633;27;19981;-72
2022/01/18 13:25:26;;;;;;;;;;;;;;;11.00;80.79;103832.50;5098611;28;20246;-73
2022/01/18 13:28:00;;;;;;;;;;;;;;;11.11;83.98;103829.03;5052948;28;19928;-73
2022/01/18 13:30:28;;;;;;;;;;;;;;;11.25;80.08;103828.34;5067885;28;19943;-73
2022/01/18 13:32:57;;;;;;;;;;;;;;;11.28;80.34;103831.16;5034436;28;19927;-73
2022/01/18 13:35:26;;;;;;;;;;;;;;;11.32;81.12;103824.53;5063011;28;20522;-74
2022/01/18 13:37:51;;;;;;;;;;;;;;;11.33;80.72;103833.13;5071428;28;20363;-74
2022/01/18 13:40:18;;;;;;;;;;;;;;;11.23;81.03;103824.78;5072674;28;19962;-73
2022/01/18 13:42:48;;;;;;;;;;;;;;;11.17;80.24;103820.84;5065482;28;19970;-72
2022/01/18 13:45:26;;;;;;;;;;;;;;;11.04;80.71;103819.03;5053134;28;19928;-73
2022/01/18 13:47:53;;;;;;;;;;;;;;;10.90;80.48;103812.88;5066820;28;19959;-73
2022/01/18 13:50:37;;;;;;;;;;;;;;;10.70;79.08;103805.38;5073242;28;19916;-74
2022/01/18 13:53:08;;;;;;;;;;;;;;;10.50;80.96;103801.31;5067502;28;20029;-73
2022/01/18 13:55:35;;;;;;;;;;;;;;;10.37;76.51;103801.16;5052186;28;20008;-73
2022/01/18 13:58:01;;;;;;;;;;;;;;;10.21;76.43;103797.41;5052757;28;19936;-74
2022/01/18 14:00:27;;;;;;;;;;;;;;;10.26;81.23;103792.66;5068385;28;19968;-74
2022/01/18 14:02:53;;;;;;;;;;;;;;;10.24;82.40;103790.72;5053935;28;19916;-73
2022/01/18 14:05:21;;;;;;;;;;;;;;;10.20;75.33;103779.28;5074906;28;20266;-74
2022/01/18 14:08:06;;;;;;;;;;;;;;;10.15;80.04;103781.50;5056729;28;20403;-74